Аэропорт
Челябинск (USCC)

 USCC / CEK
ЗЦ Екатеринбург
Екатеринбург (USSS)
Челябинск (USCC)
 55.30580, 61.50330  / 769 ft

 USCC 191200Z 24004MPS 190V290 CAVOK 23/06 Q1010 R27/000060 NOSIG RMK QFE737

АИП 1605, АИП Таблицы, Данные
показать схемы

2019 © VATRUS division (Privacy Policy)